Map

Track Data

SID SEASON NUMBER BASIN SUBBASIN NAME ISO_TIME NATURE LAT LON WMO_WIND WMO_PRES WMO_AGENCY TRACK_TYPE DIST2LAND LANDFALL IFLAG USA_AGENCY USA_ATCF_ID USA_LAT USA_LON USA_RECORD USA_STATUS USA_WIND USA_PRES USA_SSHS USA_R34_NE USA_R34_SE USA_R34_SW USA_R34_NW USA_R50_NE USA_R50_SE USA_R50_SW USA_R50_NW USA_R64_NE USA_R64_SE USA_R64_SW USA_R64_NW USA_POCI USA_ROCI USA_RMW USA_EYE TOKYO_LAT TOKYO_LON TOKYO_GRADE TOKYO_WIND TOKYO_PRES TOKYO_R50_DIR TOKYO_R50_LONG TOKYO_R50_SHORT TOKYO_R30_DIR TOKYO_R30_LONG TOKYO_R30_SHORT TOKYO_LAND CMA_LAT CMA_LON CMA_CAT CMA_WIND CMA_PRES HKO_LAT HKO_LON HKO_CAT HKO_WIND HKO_PRES NEWDELHI_LAT NEWDELHI_LON NEWDELHI_GRADE NEWDELHI_WIND NEWDELHI_PRES NEWDELHI_CI NEWDELHI_DP NEWDELHI_POCI REUNION_LAT REUNION_LON REUNION_TYPE REUNION_WIND REUNION_PRES REUNION_TNUM REUNION_CI REUNION_RMW REUNION_R34_NE REUNION_R34_SE REUNION_R34_SW REUNION_R34_NW REUNION_R50_NE REUNION_R50_SE REUNION_R50_SW REUNION_R50_NW REUNION_R64_NE REUNION_R64_SE REUNION_R64_SW REUNION_R64_NW BOM_LAT BOM_LON BOM_TYPE BOM_WIND BOM_PRES BOM_TNUM BOM_CI BOM_RMW BOM_R34_NE BOM_R34_SE BOM_R34_SW BOM_R34_NW BOM_R50_NE BOM_R50_SE BOM_R50_SW BOM_R50_NW BOM_R64_NE BOM_R64_SE BOM_R64_SW BOM_R64_NW BOM_ROCI BOM_POCI BOM_EYE BOM_POS_METHOD BOM_PRES_METHOD NADI_LAT NADI_LON NADI_CAT NADI_WIND NADI_PRES WELLINGTON_LAT WELLINGTON_LON WELLINGTON_WIND WELLINGTON_PRES DS824_LAT DS824_LON DS824_STAGE DS824_WIND DS824_PRES TD9636_LAT TD9636_LON TD9636_STAGE TD9636_WIND TD9636_PRES TD9635_LAT TD9635_LON TD9635_WIND TD9635_PRES TD9635_ROCI NEUMANN_LAT NEUMANN_LON NEUMANN_CLASS NEUMANN_WIND NEUMANN_PRES MLC_LAT MLC_LON MLC_CLASS MLC_WIND MLC_PRES USA_GUST BOM_GUST BOM_GUST_PER REUNION_GUST REUNION_GUST_PER USA_SEAHGT USA_SEARAD_NE USA_SEARAD_SE USA_SEARAD_SW USA_SEARAD_NW STORM_SPEED STORM_DIR
1929021S16151 1929 8 SP EA NOT_NAMED 1929-01-20 23:00:00 NR -15.5500 151.250 bom main 546 553 ______O___O___ -1 -15.4000 151.400 -15.7000 151.100 7 8 248
1929021S16151 1929 8 SP EA NOT_NAMED 1929-01-21 00:00:00 TS -15.5982 151.118 main 553 511 ______P__OP___ -1 -15.4922 151.222 -15.5000 151.300 TC -15.7533 150.923 7 10 247
1929021S16151 1929 8 SP EA NOT_NAMED 1929-01-21 03:00:00 TS -15.8205 150.603 main 511 454 ______P__PP___ -1 -15.7666 150.692 -15.7597 150.779 TC -15.9148 150.396 7 11 246
1929021S16151 1929 8 SP EA NOT_NAMED 1929-01-21 06:00:00 TS -16.0475 150.093 main 454 392 ______P__PP___ -1 -16.0355 150.172 -16.0152 150.267 TC -16.0837 149.885 7 11 244
1929021S16151 1929 8 SP EA NOT_NAMED 1929-01-21 09:00:00 TS -16.2753 149.615 main 392 358 ______P__PP___ -1 -16.2955 149.673 -16.2636 149.771 TC -16.2668 149.401 7 10 243
1929021S16151 1929 8 SP EA NOT_NAMED 1929-01-21 11:00:00 TS -16.4287 149.304 main 358 344 ______P__PO___ -1 -16.4623 149.356 -16.4238 149.456 TC -16.4000 149.100 7 10 243
1929021S16151 1929 8 SP EA NOT_NAMED 1929-01-21 12:00:00 TS -16.5053 149.155 main 344 297 ______P__PP___ -1 -16.5434 149.204 -16.5020 149.303 TC -16.4706 148.957 7 9 241
1929021S16151 1929 8 SP EA NOT_NAMED 1929-01-21 15:00:00 TS -16.7328 148.737 main 287 250 ______P__PP___ -1 -16.7761 148.775 -16.7275 148.873 TC -16.6947 148.563 7 9 239
1929021S16151 1929 8 SP EA NOT_NAMED 1929-01-21 18:00:00 TS -16.9519 148.369 main 248 215 ______P__PP___ -1 -16.9907 148.396 -16.9375 148.488 TC -16.9274 148.224 7 8 237
1929021S16151 1929 8 SP EA NOT_NAMED 1929-01-21 21:00:00 TS -17.1565 148.061 main 213 191 ______P__PP___ -1 -17.1842 148.076 -17.1292 148.161 TC -17.1561 147.947 7 7 234
1929021S16151 1929 8 SP EA NOT_NAMED 1929-01-21 23:00:00 TS -17.2818 147.893 996 bom main 191 180 ______O__PO___ -1 -17.3000 147.900 996 4 -17.2455 147.979 TC -17.3000 147.800 7 6 232
1929021S16151 1929 8 SP EA NOT_NAMED 1929-01-22 00:00:00 TS -17.3399 147.817 main 180 159 ______P__OP___ -1 -17.3537 147.825 -17.3000 147.900 TC 35 996 -17.3661 147.727 7 5 228
1929021S16151 1929 8 SP EA NOT_NAMED 1929-01-22 03:00:00 TS -17.5007 147.637 main 159 148 ______P__PP___ -1 -17.4992 147.647 -17.4486 147.713 TC -17.5542 147.552 7 4 222
1929021S16151 1929 8 SP EA NOT_NAMED 1929-01-22 06:00:00 TS -17.6442 147.527 main 148 148 ______P__PP___ -1 -17.6254 147.541 -17.5781 147.598 TC -17.7292 147.443 7 3 208
1929021S16151 1929 8 SP EA NOT_NAMED 1929-01-22 09:00:00 TS -17.7747 147.484 main 148 148 ______P__PP___ -1 -17.7368 147.502 -17.6932 147.551 TC -17.8941 147.397 7 3 192
1929021S16151 1929 8 SP EA NOT_NAMED 1929-01-22 11:00:00 TS -17.8564 147.489 main 148 148 ______P__PO___ -1 -17.8053 147.511 -17.7640 147.556 TC -18.0000 147.400 7 2 169
1929021S16151 1929 8 SP EA NOT_NAMED 1929-01-22 12:00:00 TS -17.8974 147.495 main 148 143 ______P__PP___ -1 -17.8384 147.526 -17.7980 147.569 TC -18.0557 147.389 7 3 163
1929021S16151 1929 8 SP EA NOT_NAMED 1929-01-22 15:00:00 TS -18.0166 147.551 main 152 146 ______P__PP___ -1 -17.9346 147.611 -17.8969 147.647 TC -18.2182 147.394 7 3 145
1929021S16151 1929 8 SP EA NOT_NAMED 1929-01-22 18:00:00 TS -18.1320 147.667 main 148 137 ______P__PP___ -1 -18.0301 147.751 -17.9941 147.781 TC -18.3718 147.469 7 4 129
1929021S16151 1929 8 SP EA NOT_NAMED 1929-01-22 21:00:00 TS -18.2456 147.848 main 140 133 ______P__PP___ -1 -18.1294 147.944 -18.0938 147.966 TC -18.5136 147.633 7 4 120
1929021S16151 1929 8 SP EA NOT_NAMED 1929-01-22 23:00:00 TS -18.3212 148.006 bom main 138 133 ______O__PO___ -1 -18.2000 148.100 -18.1636 148.117 TC -18.6000 147.800 7 5 117
1929021S16151 1929 8 SP EA NOT_NAMED 1929-01-23 00:00:00 TS -18.3629 148.096 main 133 133 ______P__OP___ -1 -18.2473 148.179 -18.2000 148.200 TC -18.6415 147.908 7 6 113
1929021S16151 1929 8 SP EA NOT_NAMED 1929-01-23 03:00:00 TS -18.4887 148.416 main 145 145 ______P__PP___ -1 -18.3945 148.460 -18.3160 148.477 TC -18.7555 148.311 7 7 111
1929021S16151 1929 8 SP EA NOT_NAMED 1929-01-23 06:00:00 TS -18.6144 148.793 main 165 158 ______P__PP___ -1 -18.5463 148.797 -18.4412 148.793 TC -18.8556 148.789 7 8 109
1929021S16151 1929 8 SP EA NOT_NAMED 1929-01-23 09:00:00 TS -18.7392 149.202 main 173 164 ______P__PP___ -1 -18.6987 149.177 -18.5741 149.143 TC -18.9448 149.286 7 8 108
1929021S16151 1929 8 SP EA NOT_NAMED 1929-01-23 11:00:00 TS -18.8216 149.479 main 182 177 ______P__PO___ -1 -18.7985 149.447 -18.6661 149.391 TC -19.0000 149.600 7 8 108
1929021S16151 1929 8 SP EA NOT_NAMED 1929-01-23 12:00:00 TS -18.8637 149.613 main 177 177 ______P__PP___ -1 -18.8475 149.585 -18.7130 149.520 TC -19.0307 149.734 7 8 108
1929021S16151 1929 8 SP EA NOT_NAMED 1929-01-23 15:00:00 TS -18.9879 150.014 main 192 192 ______P__PP___ -1 -18.9888 150.009 -18.8566 149.920 TC -19.1184 150.115 7 8 108
1929021S16151 1929 8 SP EA NOT_NAMED 1929-01-23 18:00:00 TS -19.1063 150.412 main 214 214 ______P__PP___ -1 -19.1187 150.432 -19.0032 150.337 TC -19.1972 150.467 7 8 107
1929021S16151 1929 8 SP EA NOT_NAMED 1929-01-23 21:00:00 TS -19.2222 150.804 main 242 242 ______P__PP___ -1 -19.2336 150.842 -19.1515 150.765 TC -19.2639 150.794 7 8 107
1929021S16151 1929 8 SP EA NOT_NAMED 1929-01-23 23:00:00 TS -19.2901 151.051 bom main 265 265 ______O__PO___ -1 -19.3000 151.100 -19.2505 151.055 TC -19.3000 151.000 7 7 106
1929021S16151 1929 8 SP EA NOT_NAMED 1929-01-24 00:00:00 TS -19.3188 151.168 main 274 274 ______P__OP___ -1 -19.3298 151.223 -19.3000 151.200 TC -19.3125 151.104 7 6 101
1929021S16151 1929 8 SP EA NOT_NAMED 1929-01-24 03:00:00 NR -19.3722 151.486 main 298 298 ______P___P___ -1 -19.4064 151.570 TC -19.3380 151.402 7 6 99
1929021S16151 1929 8 SP EA NOT_NAMED 1929-01-24 06:00:00 NR -19.4105 151.781 main 327 327 ______P___P___ -1 -19.4656 151.884 TC -19.3554 151.678 7 5 98
1929021S16151 1929 8 SP EA NOT_NAMED 1929-01-24 09:00:00 NR -19.4436 152.054 main 356 351 ______P___P___ -1 -19.5101 152.172 TC -19.3770 151.936 7 5 98
1929021S16151 1929 8 SP EA NOT_NAMED 1929-01-24 11:00:00 NR -19.4665 152.226 main 359 359 ______P___O___ -1 -19.5330 152.352 TC -19.4000 152.100 7 5 98
1929021S16151 1929 8 SP EA NOT_NAMED 1929-01-24 12:00:00 NR -19.4790 152.309 main 364 364 ______P___P___ -1 -19.5426 152.438 TC -19.4153 152.180 7 5 100
1929021S16151 1929 8 SP EA NOT_NAMED 1929-01-24 15:00:00 NR -19.5206 152.549 main 374 374 ______P___P___ -1 -19.5657 152.687 TC -19.4755 152.412 7 5 101
1929021S16151 1929 8 SP EA NOT_NAMED 1929-01-24 18:00:00 NR -19.5670 152.779 main 381 381 ______P___P___ -1 -19.5818 152.922 TC -19.5523 152.636 7 4 103
1929021S16151 1929 8 SP EA NOT_NAMED 1929-01-24 21:00:00 NR -19.6164 153.003 main 393 393 ______P___P___ -1 -19.5934 153.150 TC -19.6394 152.855 7 4 103
1929021S16151 1929 8 SP EA NOT_NAMED 1929-01-24 23:00:00 NR -19.6500 153.150 bom main 406 ______O___O___ -1 -19.6000 153.300 TC -19.7000 153.000 7 4 104

Digital Typhoon Data and Search

About IBTrACS Database

This database is a web-friendly format of International Best Track Archive for Climate Stewardship (IBTrACS), a global best track data archive curated by NOAA dating back to 1842.

Updated: 2021-12-06